WRC320 UKBB-UKBB
Flight info
| Callsign | WRC320 |
|---|---|
| Flight time | 0h 24m |
| Altitude | 15000 |
| Route | CY |
| Aircraft | A320/M-SDE3FGHIRWY/LB1 |
Departure
| Time | 2026-04-27 06:13 |
|---|---|
| Airport | Boryspil International Airport (UKBB) |
Arrival
| Time | 2026-04-27 06:37 |
|---|---|
| Airport | Boryspil International Airport (UKBB) |
| Time | Latitude | Longitude | Altitude | Speed | Heading |
|---|---|---|---|---|---|
| 2026-04-27 06:00 | 50.35340 | 30.90153 | 415 ft | 0 kts | 92° |
| 2026-04-27 06:02 | 50.35341 | 30.90145 | 415 ft | 2 kts | 92° |
| 2026-04-27 06:02 | 50.35341 | 30.90118 | 405 ft | 2 kts | 92° |
| 2026-04-27 06:03 | 50.35342 | 30.90092 | 409 ft | 2 kts | 92° |
| 2026-04-27 06:03 | 50.35343 | 30.90066 | 405 ft | 2 kts | 75° |
| 2026-04-27 06:03 | 50.35335 | 30.90041 | 405 ft | 3 kts | 38° |
| 2026-04-27 06:03 | 50.35320 | 30.90028 | 406 ft | 3 kts | 1° |
| 2026-04-27 06:04 | 50.35318 | 30.90028 | 406 ft | 0 kts | 358° |
| 2026-04-27 06:07 | 50.35323 | 30.90028 | 406 ft | 3 kts | 1° |
| 2026-04-27 06:07 | 50.35345 | 30.90029 | 407 ft | 8 kts | 1° |
| 2026-04-27 06:07 | 50.35420 | 30.90041 | 411 ft | 13 kts | 20° |
| 2026-04-27 06:07 | 50.35458 | 30.90153 | 412 ft | 12 kts | 93° |
| 2026-04-27 06:08 | 50.35482 | 30.90268 | 408 ft | 13 kts | 35° |
| 2026-04-27 06:08 | 50.35576 | 30.90289 | 413 ft | 15 kts | 3° |
| 2026-04-27 06:08 | 50.35697 | 30.90297 | 415 ft | 21 kts | 2° |
| 2026-04-27 06:08 | 50.35871 | 30.90310 | 413 ft | 24 kts | 3° |
| 2026-04-27 06:09 | 50.36003 | 30.90322 | 415 ft | 14 kts | 7° |
| 2026-04-27 06:09 | 50.36054 | 30.90357 | 416 ft | 0 kts | 38° |
| 2026-04-27 06:11 | 50.36078 | 30.90411 | 413 ft | 11 kts | 64° |
| 2026-04-27 06:11 | 50.36078 | 30.90524 | 418 ft | 11 kts | 116° |
| 2026-04-27 06:11 | 50.36036 | 30.90600 | 419 ft | 9 kts | 146° |
| 2026-04-27 06:11 | 50.35966 | 30.90635 | 416 ft | 10 kts | 174° |
| 2026-04-27 06:12 | 50.35933 | 30.90637 | 416 ft | 0 kts | 181° |
| 2026-04-27 06:12 | 50.35919 | 30.90636 | 418 ft | 14 kts | 182° |
| 2026-04-27 06:12 | 50.35514 | 30.90603 | 416 ft | 102 kts | 183° |
| 2026-04-27 06:13 | 50.34575 | 30.90527 | 429 ft | 167 kts | 189° |
| 2026-04-27 06:13 | 50.33381 | 30.90407 | 1208 ft | 172 kts | 191° |
| 2026-04-27 06:13 | 50.32193 | 30.90293 | 2273 ft | 170 kts | 190° |
| 2026-04-27 06:13 | 50.30952 | 30.90421 | 3011 ft | 192 kts | 177° |
| 2026-04-27 06:14 | 50.29579 | 30.91023 | 3572 ft | 219 kts | 161° |
| 2026-04-27 06:14 | 50.28181 | 30.92222 | 4117 ft | 247 kts | 144° |
| 2026-04-27 06:14 | 50.26857 | 30.94168 | 4820 ft | 271 kts | 126° |
| 2026-04-27 06:14 | 50.25726 | 30.96694 | 5603 ft | 291 kts | 122° |
| 2026-04-27 06:15 | 50.24574 | 30.99330 | 6718 ft | 298 kts | 122° |
| 2026-04-27 06:15 | 50.23382 | 31.02045 | 7857 ft | 305 kts | 121° |
| 2026-04-27 06:15 | 50.22174 | 31.04792 | 8977 ft | 312 kts | 121° |
| 2026-04-27 06:15 | 50.20931 | 31.07611 | 10086 ft | 319 kts | 121° |
| 2026-04-27 06:16 | 50.19644 | 31.10532 | 10791 ft | 339 kts | 121° |
| 2026-04-27 06:16 | 50.18255 | 31.13679 | 11390 ft | 360 kts | 122° |
| 2026-04-27 06:16 | 50.16812 | 31.16919 | 12280 ft | 370 kts | 122° |
| 2026-04-27 06:16 | 50.15492 | 31.20381 | 13210 ft | 374 kts | 109° |
| 2026-04-27 06:17 | 50.14891 | 31.24311 | 14125 ft | 371 kts | 87° |
| 2026-04-27 06:17 | 50.15152 | 31.28259 | 14790 ft | 364 kts | 66° |
| 2026-04-27 06:17 | 50.16167 | 31.31728 | 15015 ft | 348 kts | 46° |
| 2026-04-27 06:17 | 50.17808 | 31.34314 | 15083 ft | 318 kts | 21° |
| 2026-04-27 06:18 | 50.19794 | 31.35409 | 15086 ft | 299 kts | 3° |
| 2026-04-27 06:18 | 50.21842 | 31.35999 | 15087 ft | 298 kts | 2° |
| 2026-04-27 06:18 | 50.23881 | 31.36532 | 15080 ft | 296 kts | 360° |
| 2026-04-27 06:18 | 50.25917 | 31.36732 | 15078 ft | 290 kts | 352° |
| 2026-04-27 06:19 | 50.27939 | 31.36613 | 15077 ft | 290 kts | 351° |
| 2026-04-27 06:19 | 50.29946 | 31.36430 | 15077 ft | 289 kts | 350° |
| 2026-04-27 06:19 | 50.31974 | 31.36205 | 15076 ft | 289 kts | 349° |
| 2026-04-27 06:19 | 50.33981 | 31.35962 | 15073 ft | 289 kts | 349° |
| 2026-04-27 06:20 | 50.35955 | 31.35550 | 15074 ft | 284 kts | 340° |
| 2026-04-27 06:20 | 50.37665 | 31.34441 | 15074 ft | 279 kts | 327° |
| 2026-04-27 06:20 | 50.39151 | 31.32612 | 15074 ft | 278 kts | 314° |
| 2026-04-27 06:20 | 50.40284 | 31.30164 | 15075 ft | 280 kts | 300° |
| 2026-04-27 06:21 | 50.41101 | 31.27349 | 15076 ft | 281 kts | 297° |
| 2026-04-27 06:21 | 50.41895 | 31.24548 | 15073 ft | 281 kts | 297° |
| 2026-04-27 06:21 | 50.42693 | 31.21745 | 15075 ft | 281 kts | 297° |
| 2026-04-27 06:21 | 50.43493 | 31.18938 | 15076 ft | 281 kts | 297° |
| 2026-04-27 06:22 | 50.44300 | 31.16098 | 15076 ft | 281 kts | 297° |
| 2026-04-27 06:22 | 50.45097 | 31.13293 | 15078 ft | 281 kts | 297° |
| 2026-04-27 06:22 | 50.45893 | 31.10491 | 15085 ft | 281 kts | 298° |
| 2026-04-27 06:22 | 50.46768 | 31.07752 | 15076 ft | 279 kts | 306° |
| 2026-04-27 06:23 | 50.48083 | 31.05573 | 15079 ft | 277 kts | 322° |
| 2026-04-27 06:23 | 50.49804 | 31.04192 | 15080 ft | 282 kts | 339° |
| 2026-04-27 06:23 | 50.51774 | 31.03808 | 15082 ft | 291 kts | 355° |
| 2026-04-27 06:23 | 50.53799 | 31.03960 | 15084 ft | 291 kts | 356° |
| 2026-04-27 06:24 | 50.55823 | 31.04118 | 15086 ft | 292 kts | 356° |
| 2026-04-27 06:24 | 50.57852 | 31.04278 | 15081 ft | 291 kts | 356° |
| 2026-04-27 06:24 | 50.59841 | 31.04438 | 14829 ft | 283 kts | 356° |
| 2026-04-27 06:24 | 50.61786 | 31.04595 | 14577 ft | 276 kts | 356° |
| 2026-04-27 06:25 | 50.63679 | 31.04741 | 14322 ft | 270 kts | 356° |
| 2026-04-27 06:25 | 50.65532 | 31.04882 | 14081 ft | 264 kts | 356° |
| 2026-04-27 06:25 | 50.67347 | 31.05018 | 13837 ft | 259 kts | 356° |
| 2026-04-27 06:25 | 50.69133 | 31.05150 | 13546 ft | 254 kts | 356° |
| 2026-04-27 06:26 | 50.70884 | 31.05282 | 13266 ft | 250 kts | 356° |
| 2026-04-27 06:26 | 50.72610 | 31.05412 | 12984 ft | 246 kts | 356° |
| 2026-04-27 06:26 | 50.74305 | 31.05539 | 12714 ft | 242 kts | 356° |
| 2026-04-27 06:26 | 50.75958 | 31.05664 | 12563 ft | 234 kts | 356° |
| 2026-04-27 06:27 | 50.77556 | 31.05785 | 12374 ft | 227 kts | 356° |
| 2026-04-27 06:27 | 50.79111 | 31.05724 | 12058 ft | 220 kts | 341° |
| 2026-04-27 06:27 | 50.80408 | 31.04592 | 11754 ft | 214 kts | 315° |
| 2026-04-27 06:27 | 50.81134 | 31.02531 | 11408 ft | 221 kts | 288° |
| 2026-04-27 06:28 | 50.81216 | 31.00065 | 11064 ft | 227 kts | 278° |
| 2026-04-27 06:28 | 50.81264 | 30.97580 | 10682 ft | 224 kts | 280° |
| 2026-04-27 06:28 | 50.81113 | 30.95084 | 10116 ft | 236 kts | 257° |
| 2026-04-27 06:28 | 50.80041 | 30.93046 | 9547 ft | 260 kts | 219° |
| 2026-04-27 06:29 | 50.78254 | 30.92113 | 8895 ft | 274 kts | 195° |
| 2026-04-27 06:29 | 50.76364 | 30.91844 | 8294 ft | 277 kts | 187° |
| 2026-04-27 06:29 | 50.74452 | 30.91814 | 7738 ft | 274 kts | 185° |
| 2026-04-27 06:29 | 50.72567 | 30.91836 | 7291 ft | 267 kts | 185° |
| 2026-04-27 06:30 | 50.70736 | 30.91834 | 6869 ft | 258 kts | 186° |
| 2026-04-27 06:30 | 50.68947 | 30.91788 | 6461 ft | 252 kts | 187° |
| 2026-04-27 06:30 | 50.67214 | 30.91707 | 6031 ft | 246 kts | 188° |
| 2026-04-27 06:30 | 50.65524 | 30.91605 | 5634 ft | 240 kts | 189° |
| 2026-04-27 06:31 | 50.63870 | 30.91663 | 5236 ft | 241 kts | 169° |
| 2026-04-27 06:31 | 50.62294 | 30.92628 | 4846 ft | 243 kts | 163° |
| 2026-04-27 06:31 | 50.60744 | 30.92821 | 4526 ft | 218 kts | 202° |
| 2026-04-27 06:31 | 50.59321 | 30.92361 | 4485 ft | 207 kts | 193° |
| 2026-04-27 06:32 | 50.57880 | 30.92241 | 4447 ft | 206 kts | 190° |
| 2026-04-27 06:32 | 50.56490 | 30.92156 | 4454 ft | 194 kts | 191° |
| 2026-04-27 06:32 | 50.55169 | 30.92064 | 4324 ft | 185 kts | 191° |
| 2026-04-27 06:32 | 50.53916 | 30.91973 | 4107 ft | 173 kts | 192° |
| 2026-04-27 06:33 | 50.52761 | 30.91889 | 3887 ft | 162 kts | 193° |
| 2026-04-27 06:33 | 50.51652 | 30.91805 | 3666 ft | 157 kts | 193° |
| 2026-04-27 06:33 | 50.50577 | 30.91723 | 3453 ft | 153 kts | 193° |
| 2026-04-27 06:33 | 50.49507 | 30.91643 | 3237 ft | 151 kts | 193° |
| 2026-04-27 06:34 | 50.48464 | 30.91564 | 3035 ft | 154 kts | 194° |
| 2026-04-27 06:34 | 50.47332 | 30.91473 | 2800 ft | 168 kts | 192° |
| 2026-04-27 06:34 | 50.46159 | 30.91389 | 2553 ft | 168 kts | 191° |
| 2026-04-27 06:34 | 50.45000 | 30.91307 | 2314 ft | 165 kts | 191° |
| 2026-04-27 06:35 | 50.43897 | 30.91231 | 2092 ft | 152 kts | 192° |
| 2026-04-27 06:35 | 50.42877 | 30.91157 | 1874 ft | 141 kts | 193° |
| 2026-04-27 06:35 | 50.41920 | 30.91086 | 1685 ft | 135 kts | 193° |
| 2026-04-27 06:35 | 50.40991 | 30.91017 | 1505 ft | 132 kts | 192° |
| 2026-04-27 06:36 | 50.40073 | 30.90964 | 1333 ft | 132 kts | 190° |
| 2026-04-27 06:36 | 50.39159 | 30.90909 | 1127 ft | 131 kts | 194° |
| 2026-04-27 06:36 | 50.38262 | 30.90750 | 867 ft | 128 kts | 188° |
| 2026-04-27 06:36 | 50.37372 | 30.90682 | 702 ft | 132 kts | 184° |
| 2026-04-27 06:37 | 50.36468 | 30.90698 | 535 ft | 129 kts | 191° |
| 2026-04-27 06:37 | 50.35597 | 30.90608 | 416 ft | 115 kts | 187° |
| 2026-04-27 06:37 | 50.34962 | 30.90563 | 416 ft | 67 kts | 181° |
| 2026-04-27 06:37 | 50.34634 | 30.90535 | 415 ft | 40 kts | 185° |
| 2026-04-27 06:38 | 50.34393 | 30.90522 | 418 ft | 26 kts | 182° |
| 2026-04-27 06:38 | 50.34210 | 30.90454 | 417 ft | 28 kts | 204° |
| 2026-04-27 06:38 | 50.34067 | 30.90323 | 415 ft | 16 kts | 214° |
| 2026-04-27 06:38 | 50.34065 | 30.90185 | 413 ft | 15 kts | 337° |
| 2026-04-27 06:39 | 50.34163 | 30.90182 | 413 ft | 15 kts | 1° |
| 2026-04-27 06:39 | 50.34279 | 30.90191 | 413 ft | 18 kts | 2° |
| 2026-04-27 06:39 | 50.34418 | 30.90203 | 408 ft | 22 kts | 2° |
| 2026-04-27 06:39 | 50.34580 | 30.90216 | 409 ft | 25 kts | 2° |
| 2026-04-27 06:40 | 50.34761 | 30.90229 | 414 ft | 27 kts | 2° |
| 2026-04-27 06:40 | 50.34879 | 30.90199 | 410 ft | 16 kts | 315° |
| 2026-04-27 06:40 | 50.34909 | 30.90029 | 410 ft | 16 kts | 309° |
| 2026-04-27 06:40 | 50.35028 | 30.90006 | 409 ft | 20 kts | 3° |
| 2026-04-27 06:41 | 50.35176 | 30.90017 | 407 ft | 23 kts | 3° |
| 2026-04-27 06:41 | 50.35301 | 30.90028 | 409 ft | 15 kts | 2° |
| 2026-04-27 06:41 | 50.35343 | 30.90061 | 414 ft | 6 kts | 90° |
| 2026-04-27 06:41 | 50.35340 | 30.90138 | 415 ft | 8 kts | 93° |
| 2026-04-27 06:42 | 50.35340 | 30.90163 | 415 ft | 0 kts | 91° |